Terminal Aerodrome Forecast
Issued by NWS

Home | Current Version | Previous Version | Text Only | Print | Product List | Glossary On
Versions: 1 2 3 4 5 6 7 8 9 10 11 12 13 14 15 16
071
FTUS42 TJSJ 230520
TAFJBQ
TAF
TJBQ 230520Z 2306/2406 12005KT P6SM FEW030
     FM231500 06012KT P6SM VCSH FEW030 BKN060
     FM232330 20005KT P6SM SCT030
      AMD NOT SKED TIL 231100=

USA.gov is the U.S. government's official web portal to all federal, state and local government web resources and services.